Time;durP1;ratioP1;P1;durP2;ratioP2;P2;SDS_P1;SDS_P2;PMS_P1;PMS_P2;Temp;Humidity;BMP_temperature;BMP_pressure;BME280_temperature;BME280_humidity;BME280_pressure;Samples;Min_cycle;Max_cycle;Signal;HPM_P1;HPM_P2
2024/01/10 00:01:02;;;;;;;4.10;3.80;;;;;;;-5.14;99.83;96104.38;4367614;32;20272;-64
2024/01/10 00:03:30;;;;;;;4.43;4.07;;;;;;;-5.12;100.00;96092.09;4335723;32;20197;-64
2024/01/10 00:05:57;;;;;;;3.50;3.37;;;;;;;-4.81;99.00;96097.94;4335402;32;20220;-64
2024/01/10 00:08:28;;;;;;;4.57;4.18;;;;;;;-5.05;100.00;96088.63;4340458;32;20197;-64
2024/01/10 00:10:55;;;;;;;4.30;3.90;;;;;;;-4.64;99.96;96083.00;4338626;32;20246;-64
2024/01/10 00:13:21;;;;;;;4.05;3.83;;;;;;;-4.23;98.31;96075.53;4342178;32;20189;-63
2024/01/10 00:15:49;;;;;;;6.65;4.85;;;;;;;-4.09;97.10;96073.88;4363674;32;20241;-64
2024/01/10 00:18:17;;;;;;;5.57;5.15;;;;;;;-3.90;96.50;96073.28;4319319;32;20190;-62
2024/01/10 00:20:43;;;;;;;6.47;5.97;;;;;;;-3.78;96.12;96079.59;4346539;32;20309;-63
2024/01/10 00:23:11;;;;;;;5.30;4.90;;;;;;;-3.97;97.05;96072.44;4331984;32;20367;-63
2024/01/10 00:25:36;;;;;;;5.30;5.00;;;;;;;-3.70;97.48;96078.66;4343107;32;20213;-63
2024/01/10 00:28:02;;;;;;;5.90;4.13;;;;;;;-3.41;96.39;96072.53;4349426;32;20231;-62
2024/01/10 00:30:29;;;;;;;4.00;3.60;;;;;;;-3.59;96.56;96068.59;4353443;32;20242;-63
2024/01/10 00:32:56;;;;;;;3.80;3.60;;;;;;;-3.59;98.23;96071.19;4351629;32;20241;-62
2024/01/10 00:35:23;;;;;;;5.28;4.93;;;;;;;-3.39;98.37;96066.16;4340504;32;20220;-63
2024/01/10 00:37:51;;;;;;;4.47;4.07;;;;;;;-3.03;96.94;96073.00;4362338;32;20252;-63
2024/01/10 00:40:18;;;;;;;5.03;4.72;;;;;;;-2.99;95.68;96067.25;4370103;32;20215;-62
2024/01/10 00:42:45;;;;;;;6.10;5.35;;;;;;;-2.92;95.63;96069.91;4355678;32;20189;-63
2024/01/10 00:45:11;;;;;;;3.92;3.17;;;;;;;-3.12;96.71;96070.53;4322850;32;20205;-63
2024/01/10 00:47:38;;;;;;;4.05;3.85;;;;;;;-2.83;95.33;96068.72;4366322;32;20200;-62
2024/01/10 00:50:06;;;;;;;5.00;4.57;;;;;;;-2.86;95.20;96075.09;4375269;32;20236;-62
2024/01/10 00:52:33;;;;;;;5.05;4.70;;;;;;;-3.13;96.75;96078.53;4315930;32;20212;-63
2024/01/10 00:54:59;;;;;;;4.70;4.37;;;;;;;-3.42;99.00;96078.69;4334281;32;20198;-63
2024/01/10 00:57:25;;;;;;;7.45;5.78;;;;;;;-3.58;100.00;96074.59;4367827;32;20233;-63
2024/01/10 00:59:51;;;;;;;4.78;4.35;;;;;;;-3.70;100.00;96070.88;4358177;32;20231;-62
2024/01/10 01:02:18;;;;;;;7.33;6.00;;;;;;;-3.30;100.00;96077.19;4368291;32;20188;-63
2024/01/10 01:04:44;;;;;;;8.93;5.32;;;;;;;-3.52;99.96;96077.22;4357353;32;20205;-63
2024/01/10 01:07:09;;;;;;;5.30;4.90;;;;;;;-3.30;100.00;96074.59;4321650;32;20242;-63
2024/01/10 01:09:36;;;;;;;5.43;5.00;;;;;;;-3.00;99.37;96073.44;4364623;32;20192;-63
2024/01/10 01:12:02;;;;;;;5.60;5.10;;;;;;;-2.88;97.77;96078.88;4366217;32;20201;-63
2024/01/10 01:14:30;;;;;;;9.10;5.83;;;;;;;-2.78;97.45;96067.19;4347534;32;20240;-63
2024/01/10 01:16:55;;;;;;;4.40;4.10;;;;;;;-3.18;99.13;96076.50;4325615;32;20207;-62
2024/01/10 01:19:21;;;;;;;4.97;4.57;;;;;;;-2.79;97.89;96078.56;4356947;32;20201;-63
2024/01/10 01:21:49;;;;;;;7.90;6.97;;;;;;;-2.80;97.62;96089.13;4370312;32;20227;-63
2024/01/10 01:24:24;;;;;;;4.82;4.53;;;;;;;-2.64;97.08;96082.81;4354280;32;20352;-63
2024/01/10 01:26:49;;;;;;;4.62;3.83;;;;;;;-2.93;97.62;96083.87;4353541;32;20200;-62
2024/01/10 01:29:16;;;;;;;10.07;6.00;;;;;;;-3.33;99.93;96090.56;4339732;32;20204;-63
2024/01/10 01:31:42;;;;;;;5.65;5.15;;;;;;;-2.88;99.33;96084.88;4365151;32;20223;-63
2024/01/10 01:34:09;;;;;;;5.25;4.82;;;;;;;-3.58;100.00;96090.16;4361891;32;20204;-63
2024/01/10 01:36:36;;;;;;;5.25;4.65;;;;;;;-3.37;100.00;96084.13;4360894;32;20232;-63
2024/01/10 01:39:01;;;;;;;7.10;6.50;;;;;;;-3.05;100.00;96085.34;4363343;32;20197;-63
2024/01/10 01:41:29;;;;;;;6.43;4.47;;;;;;;-3.42;100.00;96096.84;4360176;32;20216;-63
2024/01/10 01:43:56;;;;;;;5.55;5.15;;;;;;;-3.88;100.00;96107.59;4337341;32;20193;-63
2024/01/10 01:46:22;;;;;;;5.00;4.78;;;;;;;-3.50;100.00;96103.75;4348726;32;20200;-63
2024/01/10 01:48:49;;;;;;;5.78;5.28;;;;;;;-3.95;100.00;96104.91;4357207;32;20201;-63
2024/01/10 01:51:21;;;;;;;9.93;6.18;;;;;;;-3.69;100.00;96103.59;4327860;32;20233;-63
2024/01/10 01:53:50;;;;;;;4.65;4.22;;;;;;;-3.36;100.00;96106.50;4335126;32;20209;-63
2024/01/10 01:56:16;;;;;;;5.22;4.90;;;;;;;-3.48;100.00;96112.16;4321389;32;20201;-63
2024/01/10 01:58:43;;;;;;;7.90;7.15;;;;;;;-3.13;100.00;96105.28;4368644;32;22513;-63
2024/01/10 02:01:11;;;;;;;8.82;6.07;;;;;;;-2.78;99.68;96108.72;4358053;32;20996;-63
2024/01/10 02:03:39;;;;;;;5.40;4.90;;;;;;;-2.62;98.29;96099.00;4346986;32;20266;-63
2024/01/10 02:06:06;;;;;;;5.37;5.05;;;;;;;-2.69;97.70;96095.56;4361162;32;20281;-63
2024/01/10 02:08:34;;;;;;;10.75;6.15;;;;;;;-2.73;97.19;96099.56;4355798;32;20247;-63
2024/01/10 02:11:05;;;;;;;7.87;5.95;;;;;;;-2.74;97.83;96093.56;4362562;32;20193;-63
2024/01/10 02:13:33;;;;;;;6.78;6.30;;;;;;;-3.35;99.73;96095.94;4345678;32;20217;-63
2024/01/10 02:16:01;;;;;;;9.77;7.95;;;;;;;-3.65;100.00;96092.66;4315721;32;20192;-63
2024/01/10 02:18:27;;;;;;;5.28;4.78;;;;;;;-3.49;100.00;96094.19;4317864;32;20198;-62
2024/01/10 02:20:54;;;;;;;5.68;5.25;;;;;;;-3.68;100.00;96090.44;4366534;32;20211;-63
2024/01/10 02:23:31;;;;;;;6.93;6.43;;;;;;;-3.75;100.00;96092.19;4358376;32;20207;-63
2024/01/10 02:25:57;;;;;;;6.00;5.65;;;;;;;-3.42;100.00;96102.03;4366731;32;20189;-63
2024/01/10 02:28:25;;;;;;;9.15;6.03;;;;;;;-3.18;100.00;96097.25;4370877;32;20199;-63
2024/01/10 02:30:53;;;;;;;4.90;4.62;;;;;;;-3.50;100.00;96098.59;4370992;32;20269;-62
2024/01/10 02:33:19;;;;;;;6.05;5.57;;;;;;;-3.76;100.00;96103.53;4334356;32;20204;-62
2024/01/10 02:35:44;;;;;;;10.70;6.80;;;;;;;-3.75;100.00;96105.16;4353128;32;20228;-63
2024/01/10 02:38:11;;;;;;;5.93;5.43;;;;;;;-3.71;100.00;96105.56;4317004;32;20255;-63
2024/01/10 02:40:38;;;;;;;5.55;5.05;;;;;;;-3.79;100.00;96113.47;4347849;32;20204;-63
2024/01/10 02:43:06;;;;;;;5.18;4.85;;;;;;;-3.60;100.00;96105.87;4354466;32;20204;-63
2024/01/10 02:45:35;;;;;;;6.82;5.85;;;;;;;-3.35;100.00;96105.50;4348065;32;20271;-63
2024/01/10 02:48:03;;;;;;;4.90;4.60;;;;;;;-3.45;100.00;96113.59;4354443;32;20258;-63
2024/01/10 02:50:29;;;;;;;5.87;5.20;;;;;;;-3.71;100.00;96106.34;4354404;32;20231;-64
2024/01/10 02:52:56;;;;;;;4.17;3.83;;;;;;;-3.58;100.00;96111.69;4372201;32;20189;-63
2024/01/10 02:55:23;;;;;;;5.18;4.82;;;;;;;-3.41;100.00;96112.22;4360623;32;20238;-63
2024/01/10 02:57:52;;;;;;;7.28;6.53;;;;;;;-3.51;100.00;96107.34;4357612;32;20231;-63
2024/01/10 03:00:17;;;;;;;17.35;6.10;;;;;;;-3.40;100.00;96108.66;4328080;32;20204;-63
2024/01/10 03:02:46;;;;;;;7.63;6.80;;;;;;;-3.19;100.00;96102.62;4335762;32;20193;-63
2024/01/10 03:05:11;;;;;;;5.40;4.97;;;;;;;-3.07;100.00;96100.31;4349298;32;20267;-63
2024/01/10 03:07:39;;;;;;;10.03;6.77;;;;;;;-2.89;100.00;96098.03;4343279;32;20197;-63
2024/01/10 03:10:05;;;;;;;7.35;6.65;;;;;;;-2.78;99.81;96092.34;4370125;32;20228;-63
2024/01/10 03:12:42;;;;;;;6.60;5.10;;;;;;;-3.07;100.00;96090.72;4372764;32;20192;-63
2024/01/10 03:15:08;;;;;;;4.93;4.62;;;;;;;-2.94;100.00;96098.63;4355896;32;20244;-63
2024/01/10 03:17:33;;;;;;;7.00;6.50;;;;;;;-3.11;99.99;96098.09;4340183;32;20188;-63
2024/01/10 03:20:03;;;;;;;6.32;5.85;;;;;;;-2.79;99.81;96086.34;4344271;32;20182;-63
2024/01/10 03:22:32;;;;;;;5.85;5.55;;;;;;;-2.72;98.94;96085.59;4354627;32;20196;-62
2024/01/10 03:24:59;;;;;;;10.55;6.53;;;;;;;-2.94;99.97;96088.25;4360732;32;20252;-63
2024/01/10 03:27:34;;;;;;;6.72;6.10;;;;;;;-2.95;99.91;96086.66;4362574;32;20233;-63
2024/01/10 03:30:00;;;;;;;7.93;6.90;;;;;;;-3.36;100.00;96085.75;4280631;32;20229;-63
2024/01/10 03:32:27;;;;;;;6.47;5.60;;;;;;;-3.44;100.00;96091.84;4325556;32;20197;-63
2024/01/10 03:34:53;;;;;;;6.32;5.82;;;;;;;-3.69;100.00;96088.84;4343320;32;20196;-62
2024/01/10 03:37:18;;;;;;;5.90;5.60;;;;;;;-3.57;100.00;96087.38;4354097;32;20255;-63
2024/01/10 03:39:45;;;;;;;4.33;4.03;;;;;;;-3.86;100.00;96077.13;4347622;32;20201;-63
2024/01/10 03:42:11;;;;;;;5.90;5.53;;;;;;;-3.88;100.00;96079.09;4356882;32;20189;-63
2024/01/10 03:44:39;;;;;;;6.07;5.47;;;;;;;-4.05;100.00;96077.72;4369323;32;20188;-63
2024/01/10 03:47:05;;;;;;;5.22;4.90;;;;;;;-3.70;100.00;96079.44;4369931;32;20244;-63
2024/01/10 03:49:32;;;;;;;4.70;4.32;;;;;;;-3.76;100.00;96077.63;4369065;32;20204;-63
2024/01/10 03:51:58;;;;;;;5.95;5.50;;;;;;;-4.01;100.00;96078.97;4348792;32;20177;-63
2024/01/10 03:54:24;;;;;;;3.78;3.53;;;;;;;-3.96;100.00;96082.63;4355981;32;20219;-62
2024/01/10 03:56:52;;;;;;;5.00;4.50;;;;;;;-3.64;100.00;96080.50;4329133;32;20190;-63
2024/01/10 03:59:19;;;;;;;5.85;5.45;;;;;;;-3.35;100.00;96070.00;4339384;32;20221;-63
2024/01/10 04:01:45;;;;;;;6.37;4.93;;;;;;;-3.14;100.00;96071.75;4345839;32;20212;-63
2024/01/10 04:04:14;;;;;;;9.70;8.83;;;;;;;-3.16;100.00;96074.53;4339971;32;20240;-63
2024/01/10 04:06:41;;;;;;;10.13;5.70;;;;;;;-3.54;100.00;96071.44;4357995;32;20275;-63
2024/01/10 04:09:09;;;;;;;7.97;5.78;;;;;;;-3.74;100.00;96074.84;4360646;32;20208;-63
2024/01/10 04:11:36;;;;;;;4.78;3.87;;;;;;;-3.61;100.00;96067.97;4379871;32;20288;-63
2024/01/10 04:14:03;;;;;;;3.72;3.60;;;;;;;-3.28;100.00;96059.66;4359342;32;20251;-63
2024/01/10 04:16:30;;;;;;;6.90;5.22;;;;;;;-3.00;100.00;96062.25;4337997;32;20211;-63
2024/01/10 04:18:57;;;;;;;4.53;4.18;;;;;;;-3.74;100.00;96062.66;4352169;32;20224;-62
2024/01/10 04:21:26;;;;;;;5.30;3.62;;;;;;;-3.85;100.00;96052.81;4329173;32;20268;-62
2024/01/10 04:23:53;;;;;;;4.85;4.45;;;;;;;-3.87;100.00;96059.97;4309301;32;20225;-62
2024/01/10 04:26:22;;;;;;;7.78;6.15;;;;;;;-3.42;100.00;96053.56;4357974;32;20189;-61
2024/01/10 04:28:54;;;;;;;8.88;8.00;;;;;;;-3.54;100.00;96065.47;4364478;32;20193;-63
2024/01/10 04:31:23;;;;;;;5.12;4.75;;;;;;;-3.35;100.00;96066.59;4362220;32;20184;-62
2024/01/10 04:33:51;;;;;;;6.05;5.55;;;;;;;-3.16;100.00;96064.16;4356393;32;20196;-63
2024/01/10 04:36:16;;;;;;;3.62;3.42;;;;;;;-3.07;100.00;96062.19;4361085;32;20252;-63
2024/01/10 04:38:42;;;;;;;6.50;6.00;;;;;;;-3.49;100.00;96058.69;4363369;32;20291;-63
2024/01/10 04:41:07;;;;;;;6.60;6.10;;;;;;;-3.48;100.00;96062.91;4336073;32;20205;-63
2024/01/10 04:43:33;;;;;;;5.40;5.10;;;;;;;-3.31;100.00;96060.81;4350011;32;20267;-63
2024/01/10 04:45:59;;;;;;;4.28;3.95;;;;;;;-3.13;100.00;96063.78;4353398;32;20249;-62
2024/01/10 04:48:25;;;;;;;6.60;5.90;;;;;;;-3.58;100.00;96062.44;4353764;32;20207;-63
2024/01/10 04:50:51;;;;;;;6.32;4.65;;;;;;;-3.23;100.00;96058.09;4368348;32;20224;-62
2024/01/10 04:53:16;;;;;;;5.87;5.30;;;;;;;-3.01;100.00;96060.66;4356481;32;20207;-63
2024/01/10 04:55:44;;;;;;;4.87;4.10;;;;;;;-3.05;100.00;96067.19;4341594;32;20200;-63
2024/01/10 04:58:11;;;;;;;5.87;5.37;;;;;;;-3.08;99.71;96075.34;4355708;32;20259;-63
2024/01/10 05:00:37;;;;;;;5.93;5.43;;;;;;;-3.53;100.00;96073.03;4355448;32;20258;-63
2024/01/10 05:03:02;;;;;;;7.90;4.80;;;;;;;-3.42;100.00;96068.34;4371955;32;20188;-63
2024/01/10 05:05:29;;;;;;;4.60;4.40;;;;;;;-3.64;100.00;96065.75;4353010;32;20251;-63
2024/01/10 05:07:55;;;;;;;5.68;4.87;;;;;;;-3.29;100.00;96073.59;4349304;32;20212;-63
2024/01/10 05:10:21;;;;;;;4.18;3.83;;;;;;;-3.61;100.00;96075.75;4347701;32;20204;-63
2024/01/10 05:12:48;;;;;;;4.33;4.13;;;;;;;-3.68;100.00;96087.03;4348228;32;20311;-63
2024/01/10 05:15:14;;;;;;;3.87;3.67;;;;;;;-3.54;100.00;96076.63;4376152;32;20185;-63
2024/01/10 05:17:40;;;;;;;4.75;4.45;;;;;;;-3.50;100.00;96064.88;4351439;32;20315;-63
2024/01/10 05:20:10;;;;;;;5.73;5.27;;;;;;;-3.67;100.00;96066.13;4349714;32;20212;-63
2024/01/10 05:22:36;;;;;;;5.15;4.75;;;;;;;-3.43;100.00;96071.91;4345195;32;20245;-63
2024/01/10 05:25:04;;;;;;;3.40;2.97;;;;;;;-3.74;100.00;96080.81;4350437;32;20231;-63
2024/01/10 05:27:31;;;;;;;5.35;4.95;;;;;;;-3.39;100.00;96083.53;4329550;32;20256;-64
2024/01/10 05:29:59;;;;;;;6.87;6.18;;;;;;;-3.59;100.00;96078.16;4344230;32;20239;-63
2024/01/10 05:32:26;;;;;;;7.22;5.15;;;;;;;-3.48;100.00;96075.87;4353665;32;20196;-63
2024/01/10 05:35:00;;;;;;;9.57;5.65;;;;;;;-3.21;100.00;96081.25;4354508;32;20201;-63
2024/01/10 05:37:27;;;;;;;5.15;4.07;;;;;;;-3.06;99.60;96074.19;4353328;32;20222;-63
2024/01/10 05:39:53;;;;;;;9.13;5.72;;;;;;;-3.16;99.53;96068.53;4368369;32;20231;-63
2024/01/10 05:42:19;;;;;;;6.50;5.95;;;;;;;-3.34;100.00;96076.00;4360274;32;20204;-63
2024/01/10 05:44:44;;;;;;;5.77;5.47;;;;;;;-3.09;100.00;96074.56;4342074;32;20228;-63
2024/01/10 05:47:11;;;;;;;6.87;4.77;;;;;;;-3.00;99.16;96090.78;4354143;32;20189;-64
2024/01/10 05:49:37;;;;;;;8.30;7.65;;;;;;;-3.32;99.92;96086.94;4343297;32;20272;-64
2024/01/10 05:52:04;;;;;;;5.20;4.70;;;;;;;-3.63;100.00;96097.66;4344596;32;20298;-63
2024/01/10 05:54:29;;;;;;;4.87;4.47;;;;;;;-3.57;100.00;96096.94;4337015;32;20280;-63
2024/01/10 05:56:55;;;;;;;6.03;5.50;;;;;;;-3.12;100.00;96095.72;4330359;32;20249;-63
2024/01/10 05:59:20;;;;;;;7.13;6.53;;;;;;;-3.12;99.64;96093.13;4337786;32;20217;-63
2024/01/10 06:01:46;;;;;;;7.43;6.73;;;;;;;-3.31;100.00;96102.31;4349379;32;20252;-63
2024/01/10 06:04:13;;;;;;;6.35;5.85;;;;;;;-2.96;99.19;96095.41;4340394;32;20224;-64
2024/01/10 06:06:40;;;;;;;6.18;5.57;;;;;;;-2.82;98.36;96096.28;4336436;32;20213;-63
2024/01/10 06:09:10;;;;;;;8.02;5.32;;;;;;;-2.68;97.65;96097.16;4358250;32;20197;-64
2024/01/10 06:11:40;;;;;;;4.97;4.43;;;;;;;-2.55;96.85;96105.03;4336496;32;20235;-63
2024/01/10 06:14:08;;;;;;;8.40;7.45;;;;;;;-2.58;96.06;96102.81;4349992;32;20197;-64
2024/01/10 06:16:36;;;;;;;5.40;4.90;;;;;;;-2.84;96.54;96101.66;4345780;32;20256;-63
2024/01/10 06:19:04;;;;;;;6.78;4.72;;;;;;;-2.97;97.82;96106.78;4312327;32;20201;-63
2024/01/10 06:21:29;;;;;;;5.30;4.95;;;;;;;-2.91;97.70;96102.66;4324012;32;20278;-63
2024/01/10 06:23:56;;;;;;;6.13;5.27;;;;;;;-3.04;97.49;96098.16;4312430;32;20201;-63
2024/01/10 06:26:22;;;;;;;4.25;3.83;;;;;;;-3.57;100.00;96105.50;4351212;32;20208;-63
2024/01/10 06:28:51;;;;;;;8.47;4.90;;;;;;;-3.44;100.00;96106.59;4339137;32;20209;-64
2024/01/10 06:31:16;;;;;;;11.00;6.12;;;;;;;-3.12;100.00;96111.28;4333395;32;20204;-63
2024/01/10 06:33:43;;;;;;;5.53;5.10;;;;;;;-3.10;100.00;96114.47;4329711;32;20201;-63
2024/01/10 06:36:11;;;;;;;6.40;5.80;;;;;;;-3.47;100.00;96111.19;4354888;32;20242;-64
2024/01/10 06:38:41;;;;;;;5.85;5.43;;;;;;;-3.47;100.00;96113.78;4335636;32;20201;-63
2024/01/10 06:41:14;;;;;;;7.43;6.43;;;;;;;-2.98;99.91;96112.97;4338380;32;20340;-63
2024/01/10 06:43:41;;;;;;;7.07;6.45;;;;;;;-2.63;97.69;96105.19;4319701;32;20238;-63
2024/01/10 06:46:10;;;;;;;5.93;5.43;;;;;;;-2.74;96.80;96097.94;4303240;32;20215;-63
2024/01/10 06:48:36;;;;;;;6.80;5.72;;;;;;;-3.17;98.38;96098.06;4315970;32;20201;-63
2024/01/10 06:51:02;;;;;;;6.43;5.77;;;;;;;-3.28;99.37;96106.34;4337071;32;20273;-63
2024/01/10 06:53:28;;;;;;;4.83;4.27;;;;;;;-3.23;99.45;96104.78;4352786;32;20212;-63
2024/01/10 06:55:54;;;;;;;5.78;5.43;;;;;;;-2.93;98.71;96113.22;4340624;32;20268;-63
2024/01/10 06:58:19;;;;;;;6.93;6.20;;;;;;;-3.44;99.71;96111.78;4347994;32;20198;-63
2024/01/10 07:00:45;;;;;;;4.87;4.53;;;;;;;-3.48;100.00;96113.94;4344277;32;20190;-63
2024/01/10 07:03:12;;;;;;;6.12;5.62;;;;;;;-3.28;100.00;96116.72;4312733;32;20205;-63
2024/01/10 07:05:39;;;;;;;5.60;5.20;;;;;;;-2.95;98.15;96111.78;4319813;32;20240;-64
2024/01/10 07:08:06;;;;;;;5.78;5.32;;;;;;;-3.29;98.45;96121.09;4337827;32;20244;-64
2024/01/10 07:10:32;;;;;;;8.00;6.10;;;;;;;-3.24;99.31;96120.53;4309316;32;20272;-63
2024/01/10 07:12:59;;;;;;;7.68;4.37;;;;;;;-3.05;98.46;96127.69;4333628;32;20194;-63
2024/01/10 07:15:27;;;;;;;4.85;4.22;;;;;;;-3.25;99.45;96121.53;4323837;32;20200;-63
2024/01/10 07:17:54;;;;;;;7.85;5.85;;;;;;;-3.01;98.38;96122.91;4330286;32;20216;-67
2024/01/10 07:20:20;;;;;;;14.30;5.03;;;;;;;-3.11;97.83;96118.84;4341411;32;20273;-61
2024/01/10 07:22:46;;;;;;;4.83;2.70;;;;;;;-0.99;100.00;96110.00;4305136;32;20206;-60
2024/01/10 07:25:15;;;;;;;9.07;5.93;;;;;;;3.14;100.00;96097.22;4333300;32;20181;-60
2024/01/10 07:27:42;;;;;;;31.00;8.77;;;;;;;4.65;100.00;96092.69;4321827;32;20270;-60
2024/01/10 07:30:15;;;;;;;9.53;8.20;;;;;;;5.57;100.00;96105.44;4319364;32;20301;-65
2024/01/10 07:32:44;;;;;;;7.83;7.13;;;;;;;3.63;83.64;96126.66;4347224;32;20386;-65
2024/01/10 07:35:11;;;;;;;8.43;7.63;;;;;;;2.44;83.77;96120.66;4331364;32;20348;-65
2024/01/10 07:37:41;;;;;;;9.63;7.90;;;;;;;0.47;82.51;96137.22;4332937;32;20298;-65
2024/01/10 07:40:13;;;;;;;10.53;9.60;;;;;;;-1.41;86.95;96156.22;4323270;32;20305;-65
2024/01/10 07:42:43;;;;;;;8.23;7.47;;;;;;;-1.49;89.10;96145.22;4324932;32;22450;-64
2024/01/10 07:45:09;;;;;;;7.83;7.13;;;;;;;-1.43;88.45;96154.81;4312677;32;20284;-65
2024/01/10 07:47:38;;;;;;;10.80;6.57;;;;;;;-1.69;89.11;96155.56;4330785;32;20286;-65
2024/01/10 07:50:09;;;;;;;10.50;7.22;;;;;;;-2.29;91.97;96164.94;4345214;32;20193;-64
2024/01/10 07:52:36;;;;;;;9.07;8.20;;;;;;;-2.75;94.14;96163.84;4327805;32;20197;-65
2024/01/10 07:55:04;;;;;;;10.70;8.15;;;;;;;-2.46;93.49;96163.62;4350380;32;20197;-65
2024/01/10 07:57:33;;;;;;;13.82;9.60;;;;;;;-2.38;92.19;96166.06;4332764;32;20208;-64
2024/01/10 08:00:00;;;;;;;10.93;9.52;;;;;;;-2.67;93.96;96168.88;4286306;32;20209;-64
2024/01/10 08:02:27;;;;;;;9.52;8.30;;;;;;;-3.10;96.35;96176.72;4345247;32;20228;-64
2024/01/10 08:04:54;;;;;;;15.57;7.30;;;;;;;-2.92;96.66;96169.31;4348853;32;20186;-64
2024/01/10 08:07:19;;;;;;;7.75;6.95;;;;;;;-2.68;96.33;96164.66;4345241;32;20238;-63
2024/01/10 08:09:49;;;;;;;6.30;5.70;;;;;;;-2.35;94.00;96173.47;4348032;32;20201;-64
2024/01/10 08:12:17;;;;;;;7.05;6.53;;;;;;;-2.55;93.94;96178.56;4349955;32;20352;-65
2024/01/10 08:14:50;;;;;;;10.43;6.30;;;;;;;-2.37;92.61;96170.28;4340835;32;20223;-65
2024/01/10 08:17:16;;;;;;;5.60;5.20;;;;;;;-2.17;92.26;96168.56;4327020;32;20220;-65
2024/01/10 08:19:42;;;;;;;7.32;6.85;;;;;;;-2.11;91.14;96170.41;4334253;32;20286;-65
2024/01/10 08:22:09;;;;;;;10.63;6.97;;;;;;;-2.36;91.80;96171.88;4312063;32;20220;-65
2024/01/10 08:24:34;;;;;;;7.25;6.60;;;;;;;-2.52;91.86;96169.59;4327693;32;20189;-65
2024/01/10 08:30:21;;;;;;;6.95;5.70;;;;;;;-2.86;94.67;96178.94;4338925;32;20231;-64
2024/01/10 08:32:51;;;;;;;9.47;6.80;;;;;;;-2.68;93.85;96175.06;4368982;32;20189;-63
2024/01/10 08:35:19;;;;;;;6.85;6.15;;;;;;;-2.45;92.52;96175.59;4348611;32;20193;-64
2024/01/10 08:37:46;;;;;;;8.55;7.75;;;;;;;-2.60;92.77;96167.13;4334246;32;20209;-63
2024/01/10 08:40:14;;;;;;;7.97;6.50;;;;;;;-2.74;93.69;96171.44;4325845;32;20284;-63
2024/01/10 08:42:42;;;;;;;9.50;7.07;;;;;;;-2.84;94.50;96166.56;4336419;32;20323;-63
2024/01/10 08:45:09;;;;;;;10.07;8.60;;;;;;;-2.80;94.74;96175.59;4343636;32;20201;-66
2024/01/10 08:47:38;;;;;;;7.32;6.50;;;;;;;-2.50;93.87;96175.41;4289567;32;20240;-66
2024/01/10 08:50:10;;;;;;;9.10;6.53;;;;;;;-2.46;93.26;96167.00;4319116;32;20275;-66
2024/01/10 08:52:38;;;;;;;11.77;7.62;;;;;;;-2.38;92.67;96171.25;4330350;32;20291;-66
2024/01/10 08:55:07;;;;;;;6.03;5.68;;;;;;;-2.55;93.35;96172.56;4302815;32;20272;-66
2024/01/10 08:57:36;;;;;;;6.78;6.15;;;;;;;-2.32;92.70;96172.31;4357150;32;20239;-66
2024/01/10 09:00:06;;;;;;;8.35;7.60;;;;;;;-2.04;91.72;96177.41;4330666;32;20216;-65
2024/01/10 09:02:36;;;;;;;9.45;6.75;;;;;;;-2.21;91.54;96177.75;4318807;32;20194;-66
2024/01/10 09:05:09;;;;;;;7.32;6.82;;;;;;;-2.24;91.40;96185.91;4354921;32;20239;-65
2024/01/10 09:07:37;;;;;;;7.28;6.68;;;;;;;-2.19;91.62;96175.75;4339684;32;20208;-66
2024/01/10 09:10:05;;;;;;;7.30;6.80;;;;;;;-2.33;92.18;96184.50;4333177;32;20189;-66
2024/01/10 09:12:34;;;;;;;6.43;6.00;;;;;;;-2.09;91.90;96185.81;4326973;32;20251;-66
2024/01/10 09:15:02;;;;;;;10.25;9.18;;;;;;;-1.90;90.70;96189.50;4317794;32;20223;-65
2024/01/10 09:17:28;;;;;;;7.87;7.12;;;;;;;-2.00;90.23;96187.25;4362867;32;20265;-66
2024/01/10 09:19:55;;;;;;;8.50;6.43;;;;;;;-2.36;92.30;96197.84;4338631;32;20197;-65
2024/01/10 09:22:27;;;;;;;6.35;5.40;;;;;;;-2.15;91.72;96200.38;4337300;32;20190;-65
2024/01/10 09:24:52;;;;;;;7.53;6.97;;;;;;;-2.23;91.80;96200.53;4325153;32;20287;-65
2024/01/10 09:27:17;;;;;;;7.70;6.90;;;;;;;-2.09;91.95;96201.41;4330669;32;20202;-66
2024/01/10 09:29:43;;;;;;;10.23;9.23;;;;;;;-2.17;92.24;96199.75;4344049;32;20387;-66
2024/01/10 09:32:09;;;;;;;6.43;5.87;;;;;;;-2.13;92.68;96200.19;4325016;32;20253;-66
2024/01/10 09:34:36;;;;;;;6.62;6.07;;;;;;;-2.17;92.54;96202.34;4343273;32;20228;-66
2024/01/10 09:37:02;;;;;;;8.05;7.07;;;;;;;-2.13;92.35;96203.59;4338613;32;20298;-65
2024/01/10 09:39:27;;;;;;;8.03;7.43;;;;;;;-2.01;91.97;96203.03;4327414;32;20224;-66
2024/01/10 09:41:53;;;;;;;10.63;7.87;;;;;;;-2.36;93.69;96208.25;4342580;32;20221;-64
2024/01/10 09:44:21;;;;;;;6.33;5.73;;;;;;;-2.28;94.04;96196.88;4345849;32;20240;-66
2024/01/10 09:46:51;;;;;;;7.95;5.65;;;;;;;-2.85;96.17;96198.69;4305060;32;20244;-65
2024/01/10 09:49:17;;;;;;;7.50;6.80;;;;;;;-3.03;97.01;96207.94;4338050;32;20189;-65
2024/01/10 09:51:48;;;;;;;10.38;7.30;;;;;;;-3.03;98.10;96200.94;4367481;32;20189;-66
2024/01/10 09:54:21;;;;;;;6.47;5.97;;;;;;;-2.80;96.97;96204.13;4357347;32;20248;-66
2024/01/10 09:56:47;;;;;;;8.18;7.37;;;;;;;-2.67;95.51;96197.44;4316605;32;20263;-66
2024/01/10 09:59:13;;;;;;;5.50;5.10;;;;;;;-2.45;94.91;96196.38;4327827;32;20193;-65
2024/01/10 10:01:39;;;;;;;8.75;7.93;;;;;;;-2.38;94.56;96199.84;4364429;32;20196;-66
2024/01/10 10:04:07;;;;;;;7.27;6.40;;;;;;;-2.50;94.45;96196.97;4337824;32;20200;-66
2024/01/10 10:06:34;;;;;;;8.40;7.60;;;;;;;-2.47;95.13;96196.56;4343944;32;20197;-66
2024/01/10 10:09:00;;;;;;;5.87;5.47;;;;;;;-2.34;94.28;96201.06;4360068;32;20196;-66
2024/01/10 10:11:26;;;;;;;8.00;7.28;;;;;;;-2.10;93.64;96199.81;4370679;32;20266;-64
2024/01/10 10:13:51;;;;;;;6.73;6.13;;;;;;;-1.89;92.10;96191.09;4333238;32;20196;-65
2024/01/10 10:16:27;;;;;;;8.40;7.27;;;;;;;-1.81;91.39;96198.72;4358351;32;20212;-66
2024/01/10 10:18:57;;;;;;;6.12;5.62;;;;;;;-1.85;91.33;96192.28;4366320;32;20265;-65
2024/01/10 10:21:27;;;;;;;6.10;5.68;;;;;;;-1.73;91.21;96191.56;4344618;32;20222;-65
2024/01/10 10:24:00;;;;;;;8.43;7.82;;;;;;;-2.39;92.55;96200.03;4356885;32;20319;-65
2024/01/10 10:26:27;;;;;;;7.20;6.72;;;;;;;-2.67;97.10;96197.44;4339633;32;20232;-65
2024/01/10 10:28:53;;;;;;;8.52;7.72;;;;;;;-2.28;96.21;96196.88;4331637;32;20201;-66
2024/01/10 10:31:20;;;;;;;7.47;6.80;;;;;;;-2.08;94.97;96198.59;4360523;32;20218;-64
2024/01/10 10:33:49;;;;;;;6.43;6.03;;;;;;;-1.86;94.08;96188.09;4353503;32;20189;-66
2024/01/10 10:36:16;;;;;;;5.93;5.40;;;;;;;-2.05;94.09;96194.81;4363201;32;20215;-66
2024/01/10 10:38:41;;;;;;;6.97;6.37;;;;;;;-2.04;93.38;96203.41;4370389;32;20189;-66
2024/01/10 10:41:12;;;;;;;6.43;5.83;;;;;;;-2.19;94.64;96196.53;4370607;32;20239;-66
2024/01/10 10:43:39;;;;;;;9.75;8.48;;;;;;;-2.22;94.94;96198.72;4333552;32;20275;-66
2024/01/10 10:46:06;;;;;;;9.70;8.40;;;;;;;-2.29;95.75;96201.31;4348359;32;20250;-65
2024/01/10 10:48:36;;;;;;;6.68;6.18;;;;;;;-2.03;94.98;96200.63;4366923;32;20205;-66
2024/01/10 10:51:15;;;;;;;7.03;6.55;;;;;;;-2.31;96.08;96202.47;4338181;32;20209;-65
2024/01/10 10:53:45;;;;;;;10.25;9.32;;;;;;;-2.15;96.56;96202.97;4373058;32;20252;-66
2024/01/10 10:56:11;;;;;;;6.97;6.25;;;;;;;-2.31;95.95;96203.28;4371987;32;20339;-66
2024/01/10 10:58:43;;;;;;;7.60;7.07;;;;;;;-2.40;96.86;96209.59;4362368;32;20192;-65
2024/01/10 11:01:14;;;;;;;10.88;8.15;;;;;;;-2.21;97.15;96201.12;4342062;32;20277;-66
2024/01/10 11:03:42;;;;;;;8.07;7.37;;;;;;;-2.38;97.59;96197.25;4352289;32;20219;-66
2024/01/10 11:06:10;;;;;;;7.32;6.82;;;;;;;-2.24;97.63;96198.09;4358768;32;20192;-66
2024/01/10 11:08:54;;;;;;;9.02;6.32;;;;;;;-2.03;96.70;96195.41;4327254;32;20257;-65
2024/01/10 11:12:13;;;;;;;6.20;5.70;;;;;;;-2.37;98.71;96193.66;4327974;32;20209;-64
2024/01/10 11:14:57;;;;;;;5.40;4.97;;;;;;;-1.92;97.24;96201.88;4353141;32;20188;-66
2024/01/10 11:17:52;;;;;;;6.28;5.80;;;;;;;-1.91;96.53;96198.28;4357567;32;20180;-63
2024/01/10 11:20:38;;;;;;;7.35;6.47;;;;;;;-1.93;96.76;96193.28;4361413;32;20227;-64
2024/01/10 11:23:41;;;;;;;6.20;5.60;;;;;;;-2.14;97.32;96193.38;4366457;32;20181;-63
2024/01/10 11:26:10;;;;;;;8.75;7.78;;;;;;;-2.18;98.80;96197.34;4345996;32;20255;-63
2024/01/10 11:28:37;;;;;;;5.62;5.00;;;;;;;-2.57;100.00;96197.91;4329950;32;20350;-64
2024/01/10 11:31:05;;;;;;;7.97;7.25;;;;;;;-2.37;100.00;96193.66;4341559;32;20210;-64
2024/01/10 11:33:33;;;;;;;7.60;7.05;;;;;;;-2.07;98.71;96200.19;4365554;32;20180;-64
2024/01/10 11:36:12;;;;;;;7.37;6.68;;;;;;;-1.90;97.73;96192.91;4358773;32;20185;-63